Time;durP1;ratioP1;P1;durP2;ratioP2;P2;SDS_P1;SDS_P2;PMS_P1;PMS_P2;Temp;Humidity;BMP_temperature;BMP_pressure;BME280_temperature;BME280_humidity;BME280_pressure;Samples;Min_cycle;Max_cycle;Signal;HPM_P1;HPM_P2
2021/06/14 00:01:03;;;;;;;12.07;5.45;;;;;;;9.44;70.21;101113.83;2088541;85;28624;-63
2021/06/14 00:04:06;;;;;;;14.13;5.53;;;;;;;9.40;70.15;101105.03;2088216;85;31312;-64
2021/06/14 00:07:07;;;;;;;17.52;6.42;;;;;;;9.37;70.37;101111.81;2088490;84;32937;-65
2021/06/14 00:10:13;;;;;;;18.20;5.65;;;;;;;9.34;70.36;101114.61;2088494;85;29422;-64
2021/06/14 00:13:15;;;;;;;12.53;6.30;;;;;;;9.32;70.44;101106.20;2088628;85;27558;-65
2021/06/14 00:16:18;;;;;;;16.55;5.62;;;;;;;9.30;70.49;101102.70;2088112;85;28685;-68
2021/06/14 00:19:21;;;;;;;11.85;5.62;;;;;;;9.26;70.63;101109.50;2088202;85;32034;-63
2021/06/14 00:22:24;;;;;;;13.53;5.53;;;;;;;9.24;70.69;101103.77;2087892;84;34099;-68
2021/06/14 00:25:29;;;;;;;10.20;5.62;;;;;;;9.21;70.71;101105.19;2088481;84;29324;-63
2021/06/14 00:28:30;;;;;;;12.45;5.80;;;;;;;9.19;70.81;101106.59;2088274;84;27548;-64
2021/06/14 00:31:32;;;;;;;13.22;5.42;;;;;;;9.18;70.90;101102.64;2088460;85;28566;-63
2021/06/14 00:34:34;;;;;;;10.03;5.55;;;;;;;9.14;71.03;101093.81;2088495;84;31233;-67
2021/06/14 00:37:36;;;;;;;14.68;6.25;;;;;;;9.13;71.04;101098.75;2087934;84;33033;-62
2021/06/14 00:40:38;;;;;;;11.73;6.05;;;;;;;9.11;71.07;101104.16;2088337;85;29387;-64
2021/06/14 00:43:40;;;;;;;8.08;4.90;;;;;;;9.09;71.24;101103.80;2088311;84;27665;-62
2021/06/14 00:46:42;;;;;;;14.28;5.30;;;;;;;9.06;71.27;101094.05;2088306;85;28695;-61
2021/06/14 00:49:44;;;;;;;8.40;5.25;;;;;;;9.05;71.40;101098.13;2088041;84;31237;-67
2021/06/14 00:52:45;;;;;;;12.20;6.25;;;;;;;9.03;71.54;101098.15;2088056;85;33115;-62
2021/06/14 00:55:48;;;;;;;16.52;6.42;;;;;;;9.01;71.47;101100.02;2088166;84;29323;-60
2021/06/14 00:58:49;;;;;;;11.38;6.30;;;;;;;9.00;71.44;101097.38;2088434;85;27557;-61
2021/06/14 01:01:51;;;;;;;10.60;5.15;;;;;;;8.98;71.57;101097.44;2088082;84;28972;-62
2021/06/14 01:04:54;;;;;;;11.38;6.55;;;;;;;8.96;71.69;101096.12;2088359;85;31075;-66
2021/06/14 01:07:56;;;;;;;11.57;6.37;;;;;;;8.94;71.72;101099.30;2088206;85;33805;-60
2021/06/14 01:11:01;;;;;;;15.28;7.47;;;;;;;8.93;71.76;101097.58;2088132;85;29378;-64
2021/06/14 01:14:44;;;;;;;27.05;6.60;;;;;;;8.92;71.89;101099.84;2062880;85;27678;-63
2021/06/14 01:17:53;;;;;;;12.13;6.78;;;;;;;8.91;71.84;101098.53;2085333;84;28687;-65
2021/06/14 01:21:15;;;;;;;17.27;6.45;;;;;;;8.89;71.94;101097.25;2069334;85;30982;-63
2021/06/14 01:24:50;;;;;;;13.50;6.72;;;;;;;8.88;72.00;101094.61;2084943;84;33598;-62
2021/06/14 01:27:56;;;;;;;12.10;6.90;;;;;;;8.86;72.06;101096.45;2085585;84;29572;-61
2021/06/14 01:30:59;;;;;;;11.38;6.80;;;;;;;8.84;72.19;101093.83;2084631;85;27538;-63
2021/06/14 01:34:01;;;;;;;10.58;6.72;;;;;;;8.83;72.17;101092.08;2085194;84;29515;-60
2021/06/14 01:37:04;;;;;;;14.10;7.65;;;;;;;8.83;72.25;101095.22;2085281;84;30986;-61
2021/06/14 01:40:08;;;;;;;10.53;6.95;;;;;;;8.80;72.22;101097.06;2085177;85;32929;-61
2021/06/14 01:43:11;;;;;;;13.10;7.75;;;;;;;8.79;72.30;101099.31;2085204;84;30173;-61
2021/06/14 01:46:18;;;;;;;10.80;6.40;;;;;;;8.77;72.42;101099.81;2069780;85;27643;-61
2021/06/14 01:49:21;;;;;;;15.00;6.53;;;;;;;8.77;72.51;101097.63;2084964;85;28609;-60
2021/06/14 01:52:23;;;;;;;12.50;6.70;;;;;;;8.75;72.50;101098.98;2085233;85;31907;-61
2021/06/14 01:55:26;;;;;;;13.88;7.92;;;;;;;8.74;72.51;101096.37;2085003;84;33003;-62
2021/06/14 01:58:30;;;;;;;11.20;6.85;;;;;;;8.73;72.63;101094.61;2085307;85;29385;-60
2021/06/14 02:01:33;;;;;;;12.73;7.55;;;;;;;8.72;72.73;101095.06;2085451;85;27650;-61
2021/06/14 02:04:37;;;;;;;14.55;7.22;;;;;;;8.70;72.73;101086.20;2085401;84;29447;-61
2021/06/14 02:07:41;;;;;;;14.70;6.50;;;;;;;8.69;72.74;101084.45;2085295;84;31276;-62
2021/06/14 02:10:43;;;;;;;14.40;6.77;;;;;;;8.68;72.70;101083.18;2085441;84;32881;-61
2021/06/14 02:13:46;;;;;;;15.40;7.55;;;;;;;8.66;72.73;101086.77;2085113;84;29412;-63
2021/06/14 02:16:49;;;;;;;9.73;7.20;;;;;;;8.64;72.77;101078.39;2077401;84;27571;-68
2021/06/14 02:19:51;;;;;;;15.03;7.92;;;;;;;8.62;72.80;101081.09;2076645;85;28679;-62
2021/06/14 02:22:55;;;;;;;13.95;7.12;;;;;;;8.62;72.97;101086.91;2076518;85;31246;-63
2021/06/14 02:25:57;;;;;;;15.60;7.25;;;;;;;8.62;73.07;101076.22;2076819;85;33003;-61
2021/06/14 02:28:59;;;;;;;15.88;8.30;;;;;;;8.62;73.18;101081.56;2076748;85;30104;-61
2021/06/14 02:32:01;;;;;;;13.03;7.78;;;;;;;8.64;73.23;101083.73;2076766;85;27566;-61
2021/06/14 02:35:06;;;;;;;14.03;7.53;;;;;;;8.65;73.37;101086.34;2076480;85;28817;-61
2021/06/14 02:38:08;;;;;;;15.03;8.13;;;;;;;8.71;73.57;101088.44;2050577;86;32772;-62
2021/06/14 02:41:11;;;;;;;16.15;8.50;;;;;;;8.77;73.69;101082.92;2013143;86;33092;-63
2021/06/14 02:44:13;;;;;;;18.85;8.48;;;;;;;8.84;73.85;101084.48;2050930;86;29501;-61
2021/06/14 02:47:19;;;;;;;19.87;8.45;;;;;;;8.93;74.03;101081.99;2050432;86;27479;-61
2021/06/14 02:50:23;;;;;;;14.98;8.43;;;;;;;9.04;74.20;101076.33;2051071;86;29466;-67
2021/06/14 02:53:27;;;;;;;17.87;9.13;;;;;;;9.16;74.27;101079.09;2051135;86;31120;-64
2021/06/14 02:56:36;;;;;;;23.90;8.78;;;;;;;9.26;74.31;101080.09;2035965;86;33881;-64
2021/06/14 02:59:40;;;;;;;16.07;9.40;;;;;;;9.37;74.35;101073.03;2051049;86;30179;-63
2021/06/14 03:02:42;;;;;;;15.55;8.88;;;;;;;9.49;74.36;101074.45;2051133;86;27713;-61
2021/06/14 03:05:45;;;;;;;19.35;10.15;;;;;;;9.58;74.24;101071.48;2047090;86;28201;-64
2021/06/14 03:08:47;;;;;;;19.17;8.45;;;;;;;9.71;74.26;101071.07;2052801;86;32054;-63
2021/06/14 03:11:50;;;;;;;16.05;8.23;;;;;;;9.83;74.28;101072.46;2051061;86;32940;-63
2021/06/14 03:14:53;;;;;;;19.60;8.88;;;;;;;9.95;74.21;101065.78;2027777;86;29311;-63
2021/06/14 03:17:55;;;;;;;23.47;10.40;;;;;;;10.06;74.09;101067.65;2048969;84;27568;-66
2021/06/14 03:20:59;;;;;;;14.83;8.38;;;;;;;10.18;73.93;101068.98;2049117;86;28740;-66
2021/06/14 03:24:01;;;;;;;17.85;8.68;;;;;;;10.30;73.87;101063.66;2054733;84;31865;-64
2021/06/14 03:27:03;;;;;;;17.20;8.98;;;;;;;10.39;73.68;101061.16;2028810;87;33001;-64
2021/06/14 03:30:07;;;;;;;21.05;9.05;;;;;;;10.54;73.69;101066.42;2028959;87;30162;-62
2021/06/14 03:33:10;;;;;;;17.48;8.25;;;;;;;10.69;73.65;101065.84;2029082;87;27579;-62
2021/06/14 03:36:12;;;;;;;13.78;8.30;;;;;;;10.82;73.35;101072.96;2059659;84;28723;-61
2021/06/14 03:39:18;;;;;;;16.75;8.10;;;;;;;10.93;73.04;101069.39;2049475;86;31787;-62
2021/06/14 03:42:20;;;;;;;15.48;8.13;;;;;;;11.03;72.88;101068.56;2056674;84;32943;-63
2021/06/14 03:45:21;;;;;;;14.40;7.70;;;;;;;11.18;72.98;101068.89;2065504;84;30126;-62
2021/06/14 03:48:23;;;;;;;16.30;7.97;;;;;;;11.32;72.82;101075.05;2083421;84;27528;-66
2021/06/14 03:51:25;;;;;;;13.25;7.60;;;;;;;11.42;72.46;101076.91;2093961;84;28697;-67
2021/06/14 03:54:27;;;;;;;16.80;7.70;;;;;;;11.49;72.27;101077.92;2055580;84;31073;-68
2021/06/14 03:57:29;;;;;;;19.05;8.63;;;;;;;11.59;72.09;101073.51;2049323;86;33074;-67
2021/06/14 04:00:31;;;;;;;15.68;7.62;;;;;;;11.68;71.95;101075.34;2096891;84;29422;-67
2021/06/14 04:03:33;;;;;;;17.40;8.00;;;;;;;11.77;71.79;101072.74;2097123;84;27585;-67
2021/06/14 04:06:35;;;;;;;11.30;7.67;;;;;;;11.85;71.63;101065.70;2097030;84;28621;-67
2021/06/14 04:09:37;;;;;;;13.35;7.45;;;;;;;11.94;71.41;101070.67;2096984;84;31014;-67
2021/06/14 04:12:39;;;;;;;16.12;9.13;;;;;;;12.07;71.39;101070.20;2094097;84;33139;-67
2021/06/14 04:15:41;;;;;;;12.37;6.97;;;;;;;12.18;71.06;101075.96;2094797;84;28884;-67
2021/06/14 04:18:43;;;;;;;14.65;7.55;;;;;;;12.30;70.96;101082.13;2052429;85;27542;-67
2021/06/14 04:21:45;;;;;;;14.15;7.53;;;;;;;12.47;70.68;101079.16;2041212;86;29812;-67
2021/06/14 04:24:46;;;;;;;10.75;6.85;;;;;;;12.61;70.50;101068.64;2040984;86;31135;-66
2021/06/14 04:27:48;;;;;;;14.93;6.97;;;;;;;12.79;70.34;101067.87;2041356;85;32953;-66
2021/06/14 04:30:51;;;;;;;13.00;6.50;;;;;;;13.01;70.39;101064.56;2088492;85;30219;-67
2021/06/14 04:33:53;;;;;;;17.57;7.35;;;;;;;13.31;70.16;101060.47;2067953;86;27524;-67
2021/06/14 04:36:54;;;;;;;9.93;6.72;;;;;;;13.62;69.48;101061.22;2066808;86;28623;-66
2021/06/14 04:39:57;;;;;;;12.45;6.80;;;;;;;13.89;68.97;101061.24;2062476;86;31101;-67
2021/06/14 04:42:58;;;;;;;10.58;6.35;;;;;;;14.20;68.99;101055.59;2062691;86;33568;-67
2021/06/14 04:46:00;;;;;;;16.27;6.60;;;;;;;14.53;68.61;101049.35;2062297;86;29318;-67
2021/06/14 04:49:02;;;;;;;8.95;5.97;;;;;;;14.80;68.31;101050.16;2063346;86;27535;-68
2021/06/14 04:52:05;;;;;;;10.38;5.95;;;;;;;14.97;67.54;101053.28;2067778;86;28223;-67
2021/06/14 04:55:07;;;;;;;11.33;6.45;;;;;;;15.14;67.17;101057.22;2067726;86;31130;-67
2021/06/14 04:58:10;;;;;;;14.63;7.15;;;;;;;15.46;67.32;101059.05;2067742;86;32569;-68
2021/06/14 05:01:12;;;;;;;11.93;6.12;;;;;;;15.87;66.78;101053.08;2063013;86;29342;-68
2021/06/14 05:04:13;;;;;;;13.48;6.50;;;;;;;16.82;66.39;101055.38;2062461;86;27567;-67
2021/06/14 05:07:15;;;;;;;11.50;6.58;;;;;;;17.50;64.97;101055.55;2062376;86;29572;-68
2021/06/14 05:10:17;;;;;;;10.25;7.08;;;;;;;18.20;63.18;101021.91;2039999;86;31123;-64
2021/06/14 05:13:19;;;;;;;10.25;6.60;;;;;;;18.66;62.62;101043.52;2067224;86;33817;-68
2021/06/14 05:16:21;;;;;;;14.75;7.10;;;;;;;18.66;62.62;101043.52;2063184;86;29439;-65
2021/06/14 05:19:23;;;;;;;10.65;5.85;;;;;;;18.82;61.63;101050.94;2084918;85;27541;-67
2021/06/14 05:22:25;;;;;;;15.20;7.08;;;;;;;19.19;61.29;101054.20;2085131;85;28853;-65
2021/06/14 05:25:27;;;;;;;15.98;6.60;;;;;;;20.08;60.42;101053.02;2082865;85;31165;-68
2021/06/14 05:28:29;;;;;;;9.88;6.28;;;;;;;20.70;59.37;101050.36;2040744;87;33031;-68
2021/06/14 05:31:31;;;;;;;11.10;6.10;;;;;;;21.43;58.88;101046.33;2040780;87;29385;-66
2021/06/14 05:34:33;;;;;;;8.58;6.35;;;;;;;22.31;58.15;101048.39;2040597;87;27527;-67
2021/06/14 05:37:35;;;;;;;7.95;6.05;;;;;;;23.26;56.82;101041.42;2016620;86;28727;-64
2021/06/14 05:40:37;;;;;;;10.35;6.33;;;;;;;24.01;55.23;101050.48;2084969;85;31133;-67
2021/06/14 05:43:39;;;;;;;11.00;6.05;;;;;;;24.83;54.27;101048.09;2084876;85;32959;-73
2021/06/14 05:46:40;;;;;;;9.40;6.97;;;;;;;25.54;52.57;101050.66;2084915;84;29367;-73
2021/06/14 05:49:42;;;;;;;11.57;6.12;;;;;;;26.03;50.45;101043.87;2084723;85;27509;-73
2021/06/14 05:52:44;;;;;;;10.82;6.65;;;;;;;26.32;49.16;101040.87;2062399;84;28613;-72
2021/06/14 05:55:46;;;;;;;11.45;6.35;;;;;;;26.64;48.69;101039.33;2066674;85;31005;-75
2021/06/14 05:58:48;;;;;;;10.35;6.50;;;;;;;27.09;48.01;101043.33;2084941;85;33155;-73
2021/06/14 06:01:49;;;;;;;8.20;6.33;;;;;;;27.56;46.12;101042.77;2084999;85;29309;-73
2021/06/14 06:04:51;;;;;;;10.08;6.05;;;;;;;27.78;44.99;101039.55;2082533;84;27542;-86
2021/06/14 06:07:54;;;;;;;10.90;6.92;;;;;;;28.07;44.18;101046.42;2085110;85;28619;-70
2021/06/14 06:10:56;;;;;;;8.53;6.37;;;;;;;28.39;43.44;101044.68;2059095;85;31034;-68
2021/06/14 06:13:57;;;;;;;12.80;7.28;;;;;;;28.56;42.36;101045.48;2040670;87;33144;-68
2021/06/14 06:16:59;;;;;;;11.73;6.60;;;;;;;28.74;41.81;101043.39;2046482;85;28758;-69
2021/06/14 06:20:03;;;;;;;11.30;7.12;;;;;;;29.10;41.21;101051.16;2056772;84;27502;-69
2021/06/14 06:23:07;;;;;;;9.05;6.37;;;;;;;29.45;40.38;101048.09;2097055;84;28704;-67
2021/06/14 06:26:09;;;;;;;8.85;6.37;;;;;;;29.64;39.51;101055.52;2097029;84;31092;-69
2021/06/14 06:29:11;;;;;;;10.03;6.95;;;;;;;29.76;39.09;101058.72;2055481;84;33125;-69
2021/06/14 06:32:13;;;;;;;10.05;6.87;;;;;;;29.85;37.63;101065.38;2049436;86;29455;-69
2021/06/14 06:35:16;;;;;;;8.93;6.65;;;;;;;30.06;38.09;101059.72;2048541;86;27535;-69
2021/06/14 06:38:18;;;;;;;9.98;6.65;;;;;;;30.38;37.31;101049.89;2074861;84;28046;-68
2021/06/14 06:41:20;;;;;;;9.63;5.90;;;;;;;30.65;36.04;101044.80;2096995;84;31021;-69
2021/06/14 06:44:22;;;;;;;11.78;6.40;;;;;;;30.77;34.75;101054.33;2097108;84;33015;-69
2021/06/14 06:47:24;;;;;;;12.40;6.92;;;;;;;30.83;34.32;101055.47;2097177;84;30302;-68
2021/06/14 06:50:27;;;;;;;12.18;6.58;;;;;;;31.01;34.03;101051.77;2072804;84;27544;-68
2021/06/14 06:53:30;;;;;;;10.95;6.55;;;;;;;31.14;34.15;101048.86;2049642;86;29695;-66
2021/06/14 06:56:33;;;;;;;10.58;6.62;;;;;;;31.46;32.70;101054.47;2049306;86;31246;-62
2021/06/14 06:59:35;;;;;;;12.40;6.25;;;;;;;31.05;32.79;101050.34;2027380;86;33006;-67
2021/06/14 07:02:37;;;;;;;8.98;6.08;;;;;;;30.27;32.38;101049.86;2047721;84;29327;-67
2021/06/14 07:05:40;;;;;;;11.73;6.45;;;;;;;29.40;32.66;101051.37;2097150;84;27699;-68
2021/06/14 07:08:42;;;;;;;9.98;7.05;;;;;;;29.34;32.44;101043.80;2097070;84;28954;-68
2021/06/14 07:11:44;;;;;;;13.40;6.92;;;;;;;29.55;32.38;101047.31;2094717;84;31010;-68
2021/06/14 07:14:46;;;;;;;10.58;7.03;;;;;;;29.92;32.18;101044.77;2085524;84;33585;-68
2021/06/14 07:17:48;;;;;;;17.82;7.15;;;;;;;30.15;31.88;101048.91;2089379;84;29290;-68
2021/06/14 07:20:50;;;;;;;11.65;6.70;;;;;;;29.91;31.48;101039.45;2077285;85;27521;-68
2021/06/14 07:23:53;;;;;;;10.85;7.17;;;;;;;29.66;31.24;101038.25;2085198;85;28679;-69
2021/06/14 07:26:55;;;;;;;10.68;6.75;;;;;;;29.83;30.84;101034.85;2085901;84;32058;-68
2021/06/14 07:29:57;;;;;;;12.78;7.65;;;;;;;29.33;30.85;101029.66;2082695;85;32960;-67
2021/06/14 07:32:59;;;;;;;12.47;7.05;;;;;;;28.83;30.62;101037.32;2065670;85;30351;-67
2021/06/14 07:36:05;;;;;;;11.68;7.00;;;;;;;28.62;31.24;101037.39;2061135;85;27504;-68
2021/06/14 07:39:07;;;;;;;11.83;7.25;;;;;;;28.20;31.06;101031.62;2085053;85;28618;-66
2021/06/14 07:42:08;;;;;;;11.50;8.05;;;;;;;27.88;31.36;101036.94;2082670;84;30931;-68
2021/06/14 07:45:12;;;;;;;12.03;7.67;;;;;;;27.67;31.22;101032.48;2085156;85;33016;-67
2021/06/14 07:48:14;;;;;;;11.73;7.53;;;;;;;27.52;31.50;101033.66;2085078;85;29341;-66
2021/06/14 07:51:16;;;;;;;9.53;6.92;;;;;;;27.75;31.13;101029.72;2085093;85;27567;-68
2021/06/14 07:54:18;;;;;;;12.78;7.20;;;;;;;28.14;31.61;101033.68;2083599;85;28715;-68
2021/06/14 07:57:20;;;;;;;13.62;7.60;;;;;;;28.55;31.24;101024.46;2040508;87;31024;-67
2021/06/14 08:00:22;;;;;;;10.18;7.20;;;;;;;28.92;30.85;101029.38;2041048;85;33092;-63
2021/06/14 08:03:24;;;;;;;9.30;6.47;;;;;;;29.20;30.60;101022.50;2040869;87;30283;-65
2021/06/14 08:06:26;;;;;;;13.10;6.67;;;;;;;29.43;30.09;101025.83;2068346;85;27640;-66
2021/06/14 08:09:34;;;;;;;7.67;6.42;;;;;;;29.72;30.19;101022.33;2085039;84;28785;-65
2021/06/14 08:12:42;;;;;;;10.82;7.28;;;;;;;29.95;29.56;101023.72;2082543;85;31915;-67
2021/06/14 08:15:42;;;;;;;9.83;6.37;;;;;;;30.05;30.00;101018.44;2042995;85;32945;-68
2021/06/14 08:18:47;;;;;;;11.55;6.83;;;;;;;30.36;30.07;101014.69;2046737;85;29891;-64
2021/06/14 08:22:11;;;;;;;10.48;6.85;;;;;;;30.83;29.72;101012.59;2077871;85;27575;-64
2021/06/14 08:25:10;;;;;;;7.37;5.83;;;;;;;31.14;28.83;101008.73;2082072;85;28966;-66
2021/06/14 08:28:09;;;;;;;12.88;6.75;;;;;;;31.25;27.68;101018.44;2085490;85;31180;-66
2021/06/14 08:31:11;;;;;;;11.38;7.78;;;;;;;30.71;27.29;101015.85;2088292;85;33051;-62
2021/06/14 08:34:14;;;;;;;9.45;7.58;;;;;;;29.97;27.69;101020.75;2084266;85;27589;-67
2021/06/14 08:37:16;;;;;;;12.15;7.83;;;;;;;29.49;27.97;101023.72;2082187;84;27592;-64
2021/06/14 08:40:21;;;;;;;8.48;6.78;;;;;;;29.03;27.94;101018.46;2084759;85;28678;-66
2021/06/14 08:43:23;;;;;;;10.20;6.95;;;;;;;28.79;28.06;101018.06;2085095;85;31916;-67
2021/06/14 08:46:27;;;;;;;9.88;5.97;;;;;;;28.87;27.96;101010.27;2084746;84;33090;-63
2021/06/14 08:49:29;;;;;;;11.10;6.73;;;;;;;28.83;27.30;101003.38;2050768;84;29384;-62
2021/06/14 08:52:31;;;;;;;9.23;6.95;;;;;;;28.80;28.33;101004.08;2040968;87;27531;-64
2021/06/14 08:55:33;;;;;;;8.68;6.55;;;;;;;28.69;28.19;100998.06;2040847;87;28725;-64
2021/06/14 08:58:36;;;;;;;10.55;6.65;;;;;;;28.67;28.81;100998.25;2040836;87;31968;-63
2021/06/14 09:01:37;;;;;;;9.95;7.12;;;;;;;28.66;28.37;100997.91;2075090;85;32958;-62
2021/06/14 09:04:40;;;;;;;11.00;7.22;;;;;;;28.60;28.76;100995.34;2084864;85;29310;-62
2021/06/14 09:07:43;;;;;;;10.43;7.65;;;;;;;28.73;29.49;100989.78;2086536;85;27607;-62
2021/06/14 09:10:46;;;;;;;10.98;6.78;;;;;;;29.01;29.17;100998.47;2063166;85;28619;-61
2021/06/14 09:13:47;;;;;;;11.73;7.67;;;;;;;28.79;28.92;100994.62;2058224;84;31082;-62
2021/06/14 09:16:51;;;;;;;10.95;7.08;;;;;;;28.62;29.05;100995.16;2040517;86;33029;-66
2021/06/14 09:19:57;;;;;;;11.28;7.35;;;;;;;28.58;29.03;100992.41;2040936;87;29399;-64
2021/06/14 09:23:07;;;;;;;11.43;6.92;;;;;;;28.38;28.80;100991.97;2050203;85;36151;-63
2021/06/14 09:26:32;;;;;;;14.43;7.80;;;;;;;28.16;28.80;100995.30;2088185;85;29733;-61
2021/06/14 09:29:35;;;;;;;10.88;7.40;;;;;;;27.99;28.38;100992.20;2088550;85;31815;-62
2021/06/14 09:32:52;;;;;;;8.90;6.37;;;;;;;27.78;29.17;100993.58;2086703;85;33092;-61
2021/06/14 09:36:00;;;;;;;9.53;6.62;;;;;;;27.78;29.48;100992.20;2020868;87;29356;-61
2021/06/14 09:39:20;;;;;;;10.20;7.22;;;;;;;27.72;29.54;100983.25;2019607;88;27514;-61
2021/06/14 09:42:26;;;;;;;11.68;7.15;;;;;;;27.34;29.39;100978.22;2020843;88;28628;-65
2021/06/14 09:45:30;;;;;;;10.48;6.67;;;;;;;26.95;29.87;100976.09;2029588;85;31826;-67
2021/06/14 09:48:38;;;;;;;10.93;7.85;;;;;;;26.84;30.46;100975.36;2015311;88;33099;-66
2021/06/14 09:51:46;;;;;;;9.93;6.72;;;;;;;26.87;30.67;100975.56;2015189;88;29464;-66
2021/06/14 09:54:49;;;;;;;12.60;7.10;;;;;;;26.99;30.47;100964.59;2015592;88;27583;-67
2021/06/14 09:57:52;;;;;;;9.15;6.85;;;;;;;26.91;29.97;100960.42;2057230;86;29896;-65
2021/06/14 10:00:58;;;;;;;8.93;7.12;;;;;;;26.76;30.63;100968.94;2025164;87;31045;-62
2021/06/14 10:04:12;;;;;;;12.43;7.67;;;;;;;26.61;30.89;100965.98;2053751;86;33851;-66
2021/06/14 10:07:18;;;;;;;12.57;7.03;;;;;;;26.42;30.70;100967.95;2054326;86;29556;-66
2021/06/14 10:10:28;;;;;;;9.78;7.20;;;;;;;26.18;30.88;100959.07;2068018;86;27648;-61
2021/06/14 10:13:31;;;;;;;10.78;6.67;;;;;;;26.05;31.50;100954.85;2067645;86;28628;-66
2021/06/14 10:16:36;;;;;;;9.50;6.45;;;;;;;26.09;31.42;100962.24;2028819;86;31097;-60
2021/06/14 10:19:37;;;;;;;;;;;;;;;26.03;31.16;100954.64;2026237;88;33099;-59
2021/06/14 10:22:40;;;;;;;9.83;6.28;;;;;;;25.79;31.16;100964.45;2024220;88;29398;-64
2021/06/14 10:25:42;;;;;;;9.33;6.75;;;;;;;25.49;31.09;100956.98;2070381;85;27707;-60
2021/06/14 10:28:45;;;;;;;12.53;6.78;;;;;;;25.25;31.58;100957.09;2088261;84;28740;-64
2021/06/14 10:31:50;;;;;;;13.93;7.03;;;;;;;25.15;31.87;100948.94;2078176;85;31093;-62
2021/06/14 10:34:54;;;;;;;10.68;6.90;;;;;;;25.01;32.05;100949.48;2041261;87;33834;-64
2021/06/14 10:37:56;;;;;;;9.53;7.10;;;;;;;24.98;32.33;100949.29;2043938;85;29472;-64
2021/06/14 10:40:59;;;;;;;14.00;7.03;;;;;;;24.93;32.20;100937.04;2041439;87;27536;-59
2021/06/14 10:44:05;;;;;;;11.33;7.42;;;;;;;24.91;32.60;100938.58;2077462;85;28779;-64
2021/06/14 10:47:09;;;;;;;9.55;7.65;;;;;;;24.80;32.21;100935.55;2085422;85;31023;-64
2021/06/14 10:50:14;;;;;;;8.88;6.55;;;;;;;24.62;32.47;100939.59;2055506;85;32955;-64
2021/06/14 10:53:25;;;;;;;11.10;6.92;;;;;;;24.53;32.98;100932.27;2038708;87;31023;-63
2021/06/14 10:56:26;;;;;;;9.98;6.70;;;;;;;24.46;32.79;100934.76;2038388;87;27516;-60
2021/06/14 10:59:36;;;;;;;10.53;7.45;;;;;;;24.36;32.52;100925.74;2051436;85;29708;-63
2021/06/14 11:02:38;;;;;;;10.00;7.28;;;;;;;24.21;33.02;100925.36;2085163;85;31172;-61
2021/06/14 11:05:45;;;;;;;11.10;7.12;;;;;;;24.16;33.76;100916.76;2085282;85;32436;-61
2021/06/14 11:09:09;;;;;;;12.03;7.37;;;;;;;24.18;34.39;100922.42;2085391;85;29325;-60
2021/06/14 11:12:28;;;;;;;11.88;6.83;;;;;;;24.19;33.85;100914.58;2018400;88;27124;-60
2021/06/14 11:15:34;;;;;;;11.35;6.78;;;;;;;24.16;34.22;100905.28;2042823;85;28722;-60
2021/06/14 11:18:36;;;;;;;11.33;7.03;;;;;;;24.15;34.79;100900.82;2085395;84;30995;-64
2021/06/14 11:21:39;;;;;;;10.98;6.83;;;;;;;24.16;34.52;100896.23;2084596;85;32996;-65
2021/06/14 11:24:43;;;;;;;11.78;6.37;;;;;;;24.13;34.79;100898.73;2085473;85;30169;-65
2021/06/14 11:27:45;;;;;;;13.57;7.23;;;;;;;24.09;35.23;100895.45;2085967;85;27529;-64
2021/06/14 11:30:49;;;;;;;12.43;7.33;;;;;;;24.07;34.64;100899.36;2063555;85;28647;-63
2021/06/14 11:33:54;;;;;;;9.33;6.08;;;;;;;23.94;34.51;100890.92;2038585;87;31917;-65
2021/06/14 11:36:57;;;;;;;9.08;6.75;;;;;;;23.89;35.41;100894.63;2038575;87;33085;-65
2021/06/14 11:40:01;;;;;;;11.57;7.43;;;;;;;23.83;34.64;100885.12;2038651;87;29359;-61
2021/06/14 11:43:12;;;;;;;11.57;6.95;;;;;;;23.74;34.68;100878.33;2045518;85;27588;-65
2021/06/14 11:46:19;;;;;;;12.33;7.28;;;;;;;23.62;35.22;100882.59;2085597;85;28720;-64
2021/06/14 11:49:35;;;;;;;9.23;6.50;;;;;;;23.53;35.10;100879.38;2085278;85;31090;-64
2021/06/14 11:52:38;;;;;;;13.38;6.80;;;;;;;23.42;34.83;100876.30;2085614;85;32966;-65
2021/06/14 11:55:44;;;;;;;10.03;6.30;;;;;;;23.29;34.68;100874.37;2084226;85;29313;-61
2021/06/14 11:58:54;;;;;;;10.43;6.70;;;;;;;23.14;34.42;100872.06;2085539;85;27816;-65
2021/06/14 12:01:56;;;;;;;12.13;7.35;;;;;;;23.00;34.97;100871.98;2069363;85;29646;-65
2021/06/14 12:05:01;;;;;;;11.35;6.22;;;;;;;22.90;35.33;100866.50;2068924;85;32064;-64
2021/06/14 12:08:05;;;;;;;11.28;5.80;;;;;;;22.86;35.29;100869.16;2053319;85;33943;-63
2021/06/14 12:11:10;;;;;;;8.60;5.85;;;;;;;22.80;35.47;100866.13;2085357;85;30117;-64
2021/06/14 12:14:16;;;;;;;9.13;6.30;;;;;;;22.80;35.57;100857.94;2081946;84;27525;-64
2021/06/14 12:17:29;;;;;;;12.07;6.72;;;;;;;22.79;35.86;100859.82;2038538;87;28781;-64
2021/06/14 12:20:36;;;;;;;9.38;6.22;;;;;;;22.80;35.86;100857.94;2076711;85;31080;-62
2021/06/14 12:23:41;;;;;;;8.85;6.08;;;;;;;22.76;35.53;100858.22;2023138;87;33140;-61
2021/06/14 12:26:43;;;;;;;11.50;6.12;;;;;;;22.72;35.15;100844.51;2023235;87;30082;-66
2021/06/14 12:29:45;;;;;;;11.18;5.83;;;;;;;22.57;35.11;100852.23;2023316;87;27570;-66
2021/06/14 12:32:47;;;;;;;11.55;6.70;;;;;;;22.49;35.38;100846.63;2038221;85;28621;-68
2021/06/14 12:35:52;;;;;;;10.08;6.42;;;;;;;22.43;35.66;100843.09;2044035;87;31934;-68
2021/06/14 12:38:55;;;;;;;9.38;6.50;;;;;;;22.42;35.82;100846.30;2044041;87;33840;-67
2021/06/14 12:41:58;;;;;;;11.90;6.40;;;;;;;22.43;35.71;100843.94;2057510;85;29349;-67
2021/06/14 12:45:10;;;;;;;10.18;5.83;;;;;;;22.45;35.71;100841.93;2091346;84;27485;-66
2021/06/14 12:48:18;;;;;;;10.13;5.58;;;;;;;22.50;35.79;100829.73;2021142;87;29343;-65
2021/06/14 12:51:23;;;;;;;7.92;6.00;;;;;;;22.54;36.43;100833.91;1998393;89;31809;-66
2021/06/14 12:54:24;;;;;;;9.47;5.87;;;;;;;22.60;36.28;100834.21;1982231;88;33039;-67
2021/06/14 12:57:39;;;;;;;11.22;6.25;;;;;;;22.66;36.46;100836.87;1982992;88;29377;-67
2021/06/14 13:00:46;;;;;;;8.65;5.97;;;;;;;22.69;36.04;100827.52;1981694;89;27705;-71
2021/06/14 13:03:49;;;;;;;10.25;6.28;;;;;;;22.73;36.68;100822.14;1980825;89;28814;-68
2021/06/14 13:06:51;;;;;;;8.40;6.20;;;;;;;22.79;36.56;100820.21;2004860;88;30848;-66
2021/06/14 13:09:54;;;;;;;4.83;4.05;;;;;;;22.83;36.09;100818.05;2016346;88;29655;-67
2021/06/14 13:12:57;;;;;;;7.70;5.35;;;;;;;22.81;36.06;100810.01;2016199;87;29321;-66
2021/06/14 13:16:11;;;;;;;8.50;6.33;;;;;;;22.80;35.14;100811.50;2031586;87;27760;-66
2021/06/14 13:19:13;;;;;;;7.50;5.70;;;;;;;22.74;35.28;100793.33;2054663;85;28703;-68
2021/06/14 13:22:21;;;;;;;9.80;5.87;;;;;;;22.66;35.61;100790.95;2032648;87;31072;-66
2021/06/14 13:25:25;;;;;;;12.65;7.25;;;;;;;22.60;36.00;100786.42;2067571;86;33082;-67
2021/06/14 13:28:41;;;;;;;6.50;4.97;;;;;;;22.58;35.53;100779.38;2082428;84;27664;-67
2021/06/14 13:31:45;;;;;;;10.58;5.90;;;;;;;22.52;35.58;100777.21;2096687;84;27525;-67
2021/06/14 13:34:57;;;;;;;10.32;6.58;;;;;;;22.49;35.85;100778.38;2097077;84;32800;-67
2021/06/14 13:37:59;;;;;;;11.12;6.03;;;;;;;22.44;35.47;100774.67;2096911;84;31019;-66
2021/06/14 13:41:03;;;;;;;9.35;5.70;;;;;;;22.34;35.77;100764.75;2079104;84;32923;-62
2021/06/14 13:44:11;;;;;;;10.15;5.78;;;;;;;22.33;35.31;100772.05;2052231;86;29331;-64
2021/06/14 13:47:22;;;;;;;11.33;6.35;;;;;;;22.28;35.35;100762.05;2052446;86;27544;-65
2021/06/14 13:50:24;;;;;;;12.65;6.87;;;;;;;22.23;35.86;100761.12;2059762;84;28778;-60
2021/06/14 13:53:27;;;;;;;12.55;6.83;;;;;;;22.19;35.57;100757.45;2094022;84;31663;-59
2021/06/14 14:00:28;;;;;;;9.30;6.55;;;;;;;22.10;35.61;100746.37;1810092;97;27679;-60
2021/06/14 14:04:02;;;;;;;9.23;5.78;;;;;;;22.05;35.53;100741.85;1789982;98;27668;-60
2021/06/14 14:10:18;;;;;;;13.85;6.10;;;;;;;21.91;35.76;100740.38;1639387;108;27937;-61
2021/06/14 14:35:45;;;;;;;10.10;6.37;;;;;;;21.88;36.58;100702.45;1555199;113;27786;-60
2021/06/14 14:42:50;;;;;;;12.33;6.78;;;;;;;21.92;36.77;100708.00;1573200;112;27754;-59
2021/06/14 14:45:53;;;;;;;9.65;6.25;;;;;;;21.91;36.95;100706.27;1593899;103;27956;-60